Time;durP1;ratioP1;P1;durP2;ratioP2;P2;SDS_P1;SDS_P2;PMS_P1;PMS_P2;Temp;Humidity;BMP_temperature;BMP_pressure;BME280_temperature;BME280_humidity;BME280_pressure;Samples;Min_cycle;Max_cycle;Signal;HPM_P1;HPM_P2
2022/10/02 00:02:30;;;;;;;8.50;6.50;;;;;;;22.67;52.20;98996.06;5091714;28;20077;-78
2022/10/02 00:05:06;;;;;;;10.90;8.25;;;;;;;22.61;52.50;98948.72;5091993;28;20031;-78
2022/10/02 00:07:46;;;;;;;10.82;7.05;;;;;;;22.49;53.51;98923.97;5090396;28;20019;-78
2022/10/02 00:10:22;;;;;;;8.88;7.50;;;;;;;22.45;53.94;98922.91;5088922;28;20020;-79
2022/10/02 00:12:53;;;;;;;12.07;6.90;;;;;;;22.48;54.03;98849.72;5090665;28;20016;-78
2022/10/02 00:15:23;;;;;;;9.45;6.93;;;;;;;22.52;53.65;98813.13;5091655;28;20561;-78
2022/10/02 00:17:52;;;;;;;11.45;7.13;;;;;;;22.62;53.83;98735.06;5091628;28;20024;-78
2022/10/02 00:20:22;;;;;;;8.20;6.50;;;;;;;21.98;53.81;98590.59;5091538;28;20020;-78
2022/10/02 00:22:52;;;;;;;7.82;6.70;;;;;;;22.64;53.96;98692.53;5091459;28;20048;-78
2022/10/02 00:25:26;;;;;;;12.35;7.70;;;;;;;22.52;54.53;98703.63;5091318;28;20051;-78
2022/10/02 00:28:13;;;;;;;13.15;8.43;;;;;;;22.54;55.51;98716.00;5091863;28;20020;-78
2022/10/02 00:30:51;;;;;;;10.68;8.25;;;;;;;22.29;56.71;98744.56;5090160;28;20105;-78
2022/10/02 00:33:32;;;;;;;10.25;8.85;;;;;;;22.14;56.55;98771.50;5091557;28;20023;-78
2022/10/02 00:36:09;;;;;;;11.30;8.73;;;;;;;22.13;56.99;98850.56;5091472;28;20020;-79
2022/10/02 00:38:57;;;;;;;10.52;9.07;;;;;;;21.48;58.41;98806.41;5091634;28;20028;-78
2022/10/02 00:41:41;;;;;;;9.90;8.82;;;;;;;21.90;57.82;98897.56;5091581;28;20022;-78
2022/10/02 00:44:21;;;;;;;12.52;8.45;;;;;;;21.84;57.99;98887.88;5091484;28;20024;-79
2022/10/02 00:47:06;;;;;;;10.50;8.43;;;;;;;21.75;57.79;98884.09;5091545;28;20031;-79
2022/10/02 00:49:48;;;;;;;10.50;7.63;;;;;;;21.62;58.60;98872.00;5091606;28;20028;-79
2022/10/02 00:52:37;;;;;;;12.98;8.20;;;;;;;21.71;58.10;98899.16;5090007;28;20527;-78
2022/10/02 00:55:10;;;;;;;11.77;9.07;;;;;;;21.73;58.21;98911.25;5081751;28;20071;-79
2022/10/02 00:57:54;;;;;;;9.70;8.27;;;;;;;21.71;58.60;98904.53;5091172;28;20103;-79
2022/10/02 01:00:21;;;;;;;9.40;7.63;;;;;;;21.76;58.51;98931.41;5091210;28;20051;-79
2022/10/02 01:03:05;;;;;;;9.48;7.82;;;;;;;21.76;58.54;98939.47;5091249;28;20016;-79
2022/10/02 01:05:33;;;;;;;12.27;9.55;;;;;;;21.32;58.46;98882.66;5089244;28;20024;-79
2022/10/02 01:07:59;;;;;;;12.18;8.68;;;;;;;21.32;58.89;98896.06;5091214;28;20036;-80
2022/10/02 01:10:26;;;;;;;10.95;8.35;;;;;;;21.72;58.68;98957.19;5091360;28;20047;-79
2022/10/02 01:12:53;;;;;;;9.27;7.63;;;;;;;21.42;58.60;98920.28;5089865;28;20404;-79
2022/10/02 01:15:21;;;;;;;10.95;8.38;;;;;;;21.77;58.53;98971.44;5091069;28;20035;-79
2022/10/02 01:17:50;;;;;;;10.40;8.52;;;;;;;21.43;58.91;98946.88;5091047;28;20030;-79
2022/10/02 01:20:41;;;;;;;13.00;8.60;;;;;;;21.70;58.88;98980.84;5090916;28;20485;-79
2022/10/02 01:23:06;;;;;;;12.23;7.57;;;;;;;21.67;58.64;98984.03;5094557;28;20024;-80
2022/10/02 01:25:31;;;;;;;8.15;7.30;;;;;;;21.43;58.74;98933.44;5094957;28;20034;-79
2022/10/02 01:27:57;;;;;;;7.70;6.70;;;;;;;21.63;58.54;98929.22;5094642;28;20058;-79
2022/10/02 01:30:22;;;;;;;7.90;6.78;;;;;;;21.70;58.56;98953.97;5094509;28;20031;-79
2022/10/02 01:32:52;;;;;;;8.38;6.85;;;;;;;21.61;58.83;98928.69;5094585;28;20055;-80
2022/10/02 01:35:20;;;;;;;9.52;6.55;;;;;;;21.58;58.58;98910.41;5094705;28;20059;-80
2022/10/02 01:37:48;;;;;;;8.75;7.10;;;;;;;21.61;58.38;98915.25;5094631;28;20036;-79
2022/10/02 01:40:32;;;;;;;7.72;6.72;;;;;;;21.78;58.39;98940.00;5094629;28;20032;-79
2022/10/02 01:43:09;;;;;;;8.88;6.40;;;;;;;21.77;58.41;98946.44;5094136;28;20563;-79
2022/10/02 01:45:59;;;;;;;7.35;6.22;;;;;;;21.86;58.48;98964.47;5093031;28;20028;-79
2022/10/02 01:48:37;;;;;;;9.73;7.03;;;;;;;21.86;58.08;98991.34;5094458;28;20097;-79
2022/10/02 01:51:05;;;;;;;10.00;6.30;;;;;;;21.90;58.12;98999.69;5093050;28;20032;-79
2022/10/02 01:53:49;;;;;;;6.68;6.07;;;;;;;21.87;58.17;98958.03;5094319;28;20024;-79
2022/10/02 01:56:20;;;;;;;13.23;6.93;;;;;;;21.36;58.39;98856.88;5094215;28;20107;-80
2022/10/02 01:59:18;;;;;;;14.70;6.97;;;;;;;22.00;58.94;98950.53;5092432;28;20577;-79
2022/10/02 02:01:53;;;;;;;12.77;7.38;;;;;;;21.79;60.08;98912.06;5070779;28;20051;-80
2022/10/02 02:04:25;;;;;;;16.38;8.05;;;;;;;21.64;60.22;98912.84;5092796;28;20024;-79
2022/10/02 02:07:01;;;;;;;13.15;7.20;;;;;;;21.26;61.15;98857.66;5092822;28;20400;-80
2022/10/02 02:09:50;;;;;;;9.73;7.82;;;;;;;21.48;61.05;98929.97;5093717;28;20412;-79
2022/10/02 02:12:38;;;;;;;10.18;7.10;;;;;;;21.79;60.78;98996.19;5093704;28;20039;-79
2022/10/02 02:15:08;;;;;;;10.00;6.80;;;;;;;21.35;60.92;98946.56;5093663;28;20031;-79
2022/10/02 02:18:03;;;;;;;10.40;7.28;;;;;;;21.76;60.72;99010.13;5093700;28;20594;-79
2022/10/02 02:20:40;;;;;;;7.40;6.53;;;;;;;21.54;60.62;98961.13;5093573;28;20052;-79
2022/10/02 02:23:12;;;;;;;10.43;7.20;;;;;;;21.61;61.26;98979.72;5093760;28;20078;-78
2022/10/02 02:25:44;;;;;;;9.45;6.88;;;;;;;21.84;61.41;99024.94;5121300;28;20031;-81
2022/10/02 02:28:12;;;;;;;9.10;7.72;;;;;;;21.24;61.87;98935.78;5113508;28;20420;-78
2022/10/02 02:30:42;;;;;;;9.82;7.57;;;;;;;21.47;62.02;98985.56;5094244;28;20032;-78
2022/10/02 02:33:15;;;;;;;12.25;8.00;;;;;;;21.61;62.13;99009.28;5092033;28;20028;-79
2022/10/02 02:35:45;;;;;;;8.88;7.32;;;;;;;21.55;62.26;98993.16;5094909;28;20038;-79
2022/10/02 02:38:17;;;;;;;9.85;7.75;;;;;;;21.37;62.68;98982.84;5093398;28;20024;-79
2022/10/02 02:40:45;;;;;;;9.70;8.10;;;;;;;21.72;63.23;99041.28;5093479;28;20028;-79
2022/10/02 02:43:27;;;;;;;12.95;7.97;;;;;;;21.43;63.84;98991.72;5093129;28;20504;-79
2022/10/02 02:45:56;;;;;;;;;;;;;;;21.48;64.17;99022.09;5093788;28;20032;-79
2022/10/02 02:48:27;;;;;;;9.75;7.68;;;;;;;21.38;63.70;98994.38;5093220;28;19916;-79
2022/10/02 02:50:59;;;;;;;10.57;8.25;;;;;;;21.21;63.95;98947.03;5118329;28;20023;-80
2022/10/02 02:54:08;;;;;;;9.13;8.00;;;;;;;21.65;64.45;99018.44;5108052;28;20042;-79
2022/10/02 02:56:35;;;;;;;9.93;8.07;;;;;;;21.38;63.77;98973.69;5073484;28;20165;-78
2022/10/02 02:59:12;;;;;;;11.48;7.90;;;;;;;21.34;64.12;98961.88;5094450;28;20028;-79
2022/10/02 03:01:38;;;;;;;9.25;8.18;;;;;;;20.82;64.14;98879.47;5092963;28;20533;-79
2022/10/02 03:04:03;;;;;;;7.70;6.85;;;;;;;21.61;64.10;99011.97;5091335;28;20050;-80
2022/10/02 03:06:38;;;;;;;7.25;5.43;;;;;;;21.50;63.19;98998.47;5092699;28;20481;-79
2022/10/02 03:09:06;;;;;;;6.40;4.80;;;;;;;21.19;62.30;98956.41;5091394;28;20032;-79
2022/10/02 03:11:46;;;;;;;4.32;3.92;;;;;;;21.67;61.74;99033.22;5091264;28;20028;-79
2022/10/02 03:14:31;;;;;;;4.03;3.63;;;;;;;21.70;61.04;99035.38;5092920;28;20070;-79
2022/10/02 03:17:20;;;;;;;4.55;3.60;;;;;;;21.02;60.86;98929.75;5092774;28;20028;-79
2022/10/02 03:19:52;;;;;;;4.38;3.05;;;;;;;21.67;60.19;99035.91;5091308;28;20024;-78
2022/10/02 03:22:35;;;;;;;7.13;3.38;;;;;;;21.26;60.42;98978.47;5092763;28;20413;-79
2022/10/02 03:25:14;;;;;;;3.88;2.83;;;;;;;21.65;59.84;99037.25;5092329;28;20024;-78
2022/10/02 03:28:13;;;;;;;5.38;2.97;;;;;;;21.42;60.09;99017.75;5092510;28;20020;-78
2022/10/02 03:30:40;;;;;;;3.20;2.90;;;;;;;21.32;60.03;99006.16;5087631;28;21109;-79
2022/10/02 03:33:09;;;;;;;4.97;3.63;;;;;;;20.81;59.82;98915.41;5092669;28;20504;-79
2022/10/02 03:35:35;;;;;;;3.83;3.40;;;;;;;21.25;59.79;99006.41;5092300;28;20028;-78
2022/10/02 03:38:08;;;;;;;5.47;3.42;;;;;;;21.58;59.93;99031.28;5092440;28;20024;-79
2022/10/02 03:40:33;;;;;;;3.55;3.25;;;;;;;21.60;60.01;99046.09;5092038;28;20023;-79
2022/10/02 03:42:59;;;;;;;5.97;3.97;;;;;;;21.60;60.02;99047.97;5090824;28;20020;-79
2022/10/02 03:45:26;;;;;;;4.57;3.33;;;;;;;20.71;59.81;98903.78;5091931;28;20063;-79
2022/10/02 03:47:51;;;;;;;5.43;4.15;;;;;;;20.79;59.71;98925.56;5089881;28;20561;-79
2022/10/02 03:50:17;;;;;;;5.30;3.28;;;;;;;21.34;59.50;99015.56;5091902;28;20024;-79
2022/10/02 03:52:43;;;;;;;4.75;3.25;;;;;;;21.25;59.70;99006.41;5091848;28;20028;-79
2022/10/02 03:55:34;;;;;;;3.92;3.03;;;;;;;21.60;59.49;99074.81;5090623;28;20412;-79
2022/10/02 03:58:08;;;;;;;4.10;2.95;;;;;;;21.10;59.51;98990.19;5091989;28;20024;-79
2022/10/02 04:00:38;;;;;;;5.30;3.15;;;;;;;21.33;59.48;99064.19;5091785;28;20519;-79
2022/10/02 04:03:10;;;;;;;5.85;3.25;;;;;;;21.22;59.54;99007.72;5090959;28;20039;-79
2022/10/02 04:05:39;;;;;;;5.53;3.10;;;;;;;21.53;59.63;99054.34;5092449;28;20049;-79
2022/10/02 04:08:10;;;;;;;5.55;3.42;;;;;;;21.64;59.54;99074.03;5091724;28;20481;-79
2022/10/02 04:10:41;;;;;;;3.40;2.67;;;;;;;21.51;59.83;99069.09;5091456;28;20511;-79
2022/10/02 04:13:15;;;;;;;;;;;;;;;21.30;60.29;99078.94;5091825;28;20037;-79
2022/10/02 04:16:03;;;;;;;3.38;2.50;;;;;;;21.08;60.28;99051.38;5091504;28;20382;-79
2022/10/02 04:18:35;;;;;;;6.57;2.25;;;;;;;20.91;60.81;99022.00;5091364;28;20027;-79
2022/10/02 04:21:20;;;;;;;3.70;2.92;;;;;;;20.92;60.79;99043.22;5091443;28;20200;-79
2022/10/02 04:23:52;;;;;;;3.97;2.90;;;;;;;20.75;61.30;99028.28;5091775;28;20549;-79
2022/10/02 04:26:28;;;;;;;;;;;;;;;20.85;62.09;99098.16;5092293;28;20024;-79
2022/10/02 04:28:58;;;;;;;3.67;2.20;;;;;;;20.57;62.23;99067.03;5091642;28;19936;-79
2022/10/02 04:31:26;;;;;;;3.10;2.30;;;;;;;20.52;62.57;99059.75;5090084;28;20028;-79
2022/10/02 04:33:53;;;;;;;5.78;2.45;;;;;;;20.83;63.12;99119.09;5091418;28;20023;-79
2022/10/02 04:36:27;;;;;;;4.45;2.05;;;;;;;20.79;63.43;99112.56;5091459;28;20020;-79
2022/10/02 04:39:04;;;;;;;3.67;2.00;;;;;;;20.79;63.65;99115.25;5091270;28;20519;-79
2022/10/02 04:41:51;;;;;;;2.92;2.10;;;;;;;20.75;63.81;99117.63;5090638;28;20500;-79
2022/10/02 04:44:32;;;;;;;7.53;2.20;;;;;;;20.79;63.75;99126.00;5091661;28;20115;-79
2022/10/02 04:47:38;;;;;;;2.80;1.55;;;;;;;20.77;63.74;99134.28;5091578;28;20107;-79
2022/10/02 04:50:35;;;;;;;3.28;1.60;;;;;;;20.67;64.60;99136.06;5079067;28;20044;-79
2022/10/02 04:53:15;;;;;;;3.25;1.77;;;;;;;20.69;63.56;99147.34;5089922;28;20028;-79
2022/10/02 04:55:59;;;;;;;3.80;2.00;;;;;;;20.35;63.82;99091.22;5090202;28;20028;-79
2022/10/02 04:58:59;;;;;;;2.65;1.70;;;;;;;20.70;63.27;99147.09;5095414;28;20504;-79
2022/10/02 05:01:50;;;;;;;4.32;1.80;;;;;;;20.76;63.41;99161.38;5093781;28;20048;-79
2022/10/02 05:04:26;;;;;;;2.47;1.50;;;;;;;20.22;63.47;99088.94;5095072;28;20031;-79
2022/10/02 05:07:09;;;;;;;3.88;2.13;;;;;;;20.74;62.98;99152.78;5095203;28;20031;-78
2022/10/02 05:09:57;;;;;;;3.75;1.70;;;;;;;20.77;62.61;99168.38;5093835;28;20016;-79
2022/10/02 05:12:44;;;;;;;2.67;1.60;;;;;;;20.76;62.24;99145.28;5095092;28;20053;-79
2022/10/02 05:15:18;;;;;;;2.92;1.70;;;;;;;20.79;61.44;99152.81;5093657;28;20089;-79
2022/10/02 05:17:49;;;;;;;3.13;1.92;;;;;;;20.87;61.08;99144.34;5095121;28;20477;-80
2022/10/02 05:20:20;;;;;;;1.77;1.42;;;;;;;20.84;60.33;99167.13;5094906;28;20028;-79
2022/10/02 05:22:49;;;;;;;1.92;1.50;;;;;;;20.74;59.26;99148.22;5093666;28;20035;-79
2022/10/02 05:25:33;;;;;;;2.70;1.50;;;;;;;20.74;58.98;99161.63;5093470;28;20028;-79
2022/10/02 05:28:05;;;;;;;3.60;1.40;;;;;;;20.78;58.61;99153.88;5094803;28;20028;-79
2022/10/02 05:30:45;;;;;;;2.38;1.05;;;;;;;19.98;56.86;99030.22;5093295;28;20039;-79
2022/10/02 05:33:10;;;;;;;2.70;1.17;;;;;;;20.77;57.09;99152.25;5093260;28;20028;-79
2022/10/02 05:36:39;;;;;;;2.70;1.52;;;;;;;20.68;56.33;99159.97;5094078;28;20051;-79
2022/10/02 05:39:12;;;;;;;3.72;1.40;;;;;;;20.70;56.40;99165.06;5072333;28;20032;-79
2022/10/02 05:41:55;;;;;;;3.30;1.30;;;;;;;20.69;56.21;99168.81;5072433;28;20028;-79
2022/10/02 05:44:41;;;;;;;2.17;1.30;;;;;;;20.61;55.53;99168.22;5099902;28;20035;-79
2022/10/02 05:47:21;;;;;;;3.97;1.13;;;;;;;20.51;55.30;99151.19;5120546;28;20020;-79
2022/10/02 05:50:01;;;;;;;3.17;1.67;;;;;;;20.50;55.34;99163.81;5100765;28;20031;-79
2022/10/02 05:52:43;;;;;;;2.35;1.55;;;;;;;20.54;55.09;99182.88;5095169;28;20091;-79
2022/10/02 05:55:24;;;;;;;4.15;1.60;;;;;;;20.58;55.01;99186.69;5095429;28;20550;-79
2022/10/02 05:58:00;;;;;;;4.78;1.83;;;;;;;20.47;55.04;99182.28;5094170;28;20520;-79
2022/10/02 06:00:57;;;;;;;2.53;2.00;;;;;;;20.61;54.77;99188.84;5094032;28;20109;-79
2022/10/02 06:03:42;;;;;;;4.00;2.47;;;;;;;20.66;54.53;99202.31;5092714;28;20039;-79
2022/10/02 06:06:35;;;;;;;3.35;2.30;;;;;;;20.67;54.19;99203.94;5092937;28;20092;-79
2022/10/02 06:09:22;;;;;;;2.65;2.28;;;;;;;20.71;53.74;99206.94;5091219;28;20020;-79
2022/10/02 06:12:10;;;;;;;3.78;2.60;;;;;;;20.77;53.57;99197.88;5093835;28;20086;-79
2022/10/02 06:15:01;;;;;;;2.78;2.33;;;;;;;20.77;53.08;99204.06;5093869;28;20024;-79
2022/10/02 06:17:42;;;;;;;3.00;2.70;;;;;;;20.47;53.01;99144.72;5093745;28;20100;-79
2022/10/02 06:20:31;;;;;;;6.40;2.40;;;;;;;20.54;53.04;99175.66;5093636;28;20056;-79
2022/10/02 06:23:06;;;;;;;5.45;2.88;;;;;;;20.44;53.05;99150.59;5093644;28;20032;-79
2022/10/02 06:25:43;;;;;;;2.67;2.42;;;;;;;20.30;52.84;99147.47;5093535;28;20077;-80
2022/10/02 06:28:22;;;;;;;4.40;2.50;;;;;;;20.47;52.79;99166.19;5092523;28;20035;-79
2022/10/02 06:31:03;;;;;;;3.70;2.33;;;;;;;20.33;52.76;99165.72;5091616;28;20054;-79
2022/10/02 06:33:32;;;;;;;3.42;2.60;;;;;;;20.79;52.65;99234.13;5093596;28;20107;-79
2022/10/02 06:36:23;;;;;;;3.53;2.70;;;;;;;20.76;52.54;99213.16;5092229;28;20035;-79
2022/10/02 06:39:39;;;;;;;3.22;2.30;;;;;;;20.98;52.12;99225.75;5092198;28;20039;-79
2022/10/02 06:42:07;;;;;;;2.70;2.20;;;;;;;21.00;52.29;99247.78;5051067;28;20486;-79
2022/10/02 06:44:38;;;;;;;5.25;2.20;;;;;;;21.03;51.91;99253.47;5080464;28;20067;-79
2022/10/02 06:47:34;;;;;;;2.40;2.22;;;;;;;21.05;51.96;99243.28;5093344;28;20024;-79
2022/10/02 06:50:18;;;;;;;3.40;2.30;;;;;;;21.14;51.87;99265.09;5091893;28;20488;-79
2022/10/02 06:52:52;;;;;;;6.00;2.40;;;;;;;21.25;51.39;99251.56;5093020;28;20034;-79
2022/10/02 06:55:41;;;;;;;4.32;2.28;;;;;;;21.39;51.27;99261.88;5092871;28;20024;-79
2022/10/02 06:58:24;;;;;;;5.95;2.55;;;;;;;21.49;50.81;99270.03;5091550;28;20038;-79
2022/10/02 07:01:02;;;;;;;2.65;2.30;;;;;;;21.58;50.59;99263.16;5093214;28;20048;-79
2022/10/02 07:03:33;;;;;;;2.65;2.22;;;;;;;21.61;50.17;99256.44;5091799;28;20038;-79
2022/10/02 07:06:07;;;;;;;5.97;2.38;;;;;;;21.50;50.12;99268.97;5092891;28;20038;-79
2022/10/02 07:09:00;;;;;;;4.53;2.20;;;;;;;21.64;49.81;99293.56;5091537;28;20024;-79
2022/10/02 07:11:28;;;;;;;2.60;2.40;;;;;;;21.72;49.93;99280.44;5091472;28;20153;-79
2022/10/02 07:14:03;;;;;;;4.65;2.40;;;;;;;21.83;49.78;99284.84;5091439;28;20406;-79
2022/10/02 07:16:59;;;;;;;4.68;2.17;;;;;;;21.84;48.94;99285.66;5092933;28;20170;-79
2022/10/02 07:19:44;;;;;;;5.68;2.00;;;;;;;21.77;48.47;99258.19;5092264;28;20035;-79
2022/10/02 07:22:41;;;;;;;2.97;1.80;;;;;;;21.76;47.59;99249.31;5092758;28;20038;-80
2022/10/02 07:25:44;;;;;;;2.97;1.90;;;;;;;22.01;47.43;99299.75;5092046;28;20020;-79
2022/10/02 07:28:26;;;;;;;2.30;2.10;;;;;;;22.05;47.39;99292.81;5091641;28;20066;-79
2022/10/02 07:31:04;;;;;;;4.40;2.05;;;;;;;22.19;47.47;99303.94;5092534;28;20392;-79
2022/10/02 07:33:39;;;;;;;6.43;2.10;;;;;;;22.20;47.19;99302.84;5092579;28;20503;-79
2022/10/02 07:36:26;;;;;;;2.22;2.03;;;;;;;21.80;46.82;99250.41;5092380;28;20066;-79
2022/10/02 07:39:19;;;;;;;2.78;1.77;;;;;;;22.16;46.75;99299.88;5092244;28;20023;-79
2022/10/02 07:41:59;;;;;;;5.55;2.40;;;;;;;22.15;46.00;99303.63;5092312;28;20053;-78
2022/10/02 07:44:27;;;;;;;5.65;1.90;;;;;;;22.11;46.03;99299.84;5092059;28;20103;-79
2022/10/02 07:47:18;;;;;;;3.25;1.92;;;;;;;22.22;45.62;99291.84;5092158;28;20448;-79
2022/10/02 07:49:53;;;;;;;4.32;1.73;;;;;;;22.21;44.94;99288.34;5083395;28;20040;-79
2022/10/02 07:52:28;;;;;;;3.28;1.92;;;;;;;22.28;45.34;99274.66;5091799;28;20435;-79
2022/10/02 07:55:00;;;;;;;4.28;1.70;;;;;;;22.30;44.58;99276.03;5091797;28;20098;-79
2022/10/02 07:57:34;;;;;;;3.13;1.52;;;;;;;22.32;43.51;99273.91;5091758;28;20389;-79
2022/10/02 08:00:22;;;;;;;6.93;1.90;;;;;;;22.35;43.55;99288.72;5091820;28;20082;-79
2022/10/02 08:03:07;;;;;;;3.05;1.73;;;;;;;22.41;43.63;99293.03;5092102;28;20028;-79
2022/10/02 08:05:38;;;;;;;4.57;1.60;;;;;;;22.49;43.34;99279.09;5090380;28;20088;-79
2022/10/02 08:08:14;;;;;;;4.70;1.73;;;;;;;22.02;43.20;99195.72;5090859;28;20032;-79
2022/10/02 08:10:46;;;;;;;3.30;1.83;;;;;;;22.66;42.79;99277.03;5092427;28;20039;-79
2022/10/02 08:13:22;;;;;;;8.93;2.05;;;;;;;22.72;42.72;99275.16;5091937;28;20027;-79
2022/10/02 08:15:53;;;;;;;2.80;1.40;;;;;;;22.39;42.27;99226.06;5091750;28;20545;-79
2022/10/02 08:18:36;;;;;;;2.33;1.50;;;;;;;22.88;41.72;99278.72;5091100;28;20034;-79
2022/10/02 08:21:08;;;;;;;5.45;1.40;;;;;;;22.97;40.81;99272.56;5091913;28;20424;-79
2022/10/02 08:23:47;;;;;;;8.10;1.50;;;;;;;22.64;39.47;99209.19;5091622;28;20502;-79
2022/10/02 08:26:37;;;;;;;6.28;1.42;;;;;;;22.72;37.92;99213.25;5091598;28;20035;-80
2022/10/02 08:29:08;;;;;;;3.65;1.55;;;;;;;22.91;37.57;99221.66;5091763;28;20408;-79
2022/10/02 08:31:34;;;;;;;5.55;1.50;;;;;;;23.21;37.22;99253.25;5090940;28;20031;-79
2022/10/02 08:34:16;;;;;;;2.88;1.50;;;;;;;23.07;35.85;99229.53;5092506;28;20036;-79
2022/10/02 08:36:58;;;;;;;4.28;1.40;;;;;;;23.06;36.48;99237.88;5090386;28;20067;-79
2022/10/02 08:39:44;;;;;;;2.83;1.45;;;;;;;23.49;37.24;99309.31;5091514;28;20462;-79
2022/10/02 08:42:44;;;;;;;4.03;1.50;;;;;;;23.52;38.19;99294.50;5091622;28;20021;-79
2022/10/02 08:45:24;;;;;;;5.60;2.20;;;;;;;23.53;38.33;99271.88;5090274;28;20035;-79
2022/10/02 08:47:59;;;;;;;4.10;1.40;;;;;;;23.64;38.21;99286.97;5091795;28;20039;-78
2022/10/02 08:50:43;;;;;;;4.22;1.65;;;;;;;23.66;36.91;99306.41;5091369;28;20793;-79
2022/10/02 08:53:33;;;;;;;5.03;1.77;;;;;;;23.61;37.52;99296.41;5090043;28;20055;-78
2022/10/02 08:56:04;;;;;;;2.67;1.45;;;;;;;23.77;37.11;99272.97;5091367;28;20158;-79
2022/10/02 08:58:57;;;;;;;5.88;1.77;;;;;;;23.90;37.47;99283.22;5091270;28;20413;-79
2022/10/02 09:01:47;;;;;;;4.55;1.77;;;;;;;23.97;37.49;99242.50;5089847;28;20139;-79
2022/10/02 09:04:30;;;;;;;7.53;2.55;;;;;;;24.16;36.87;99288.56;5091406;28;20028;-79
2022/10/02 09:07:14;;;;;;;2.63;1.60;;;;;;;24.18;37.12;99248.66;5091730;28;20033;-79
2022/10/02 09:09:45;;;;;;;4.65;1.60;;;;;;;24.15;37.09;99244.59;5112949;28;20032;-79
2022/10/02 09:12:14;;;;;;;4.88;1.67;;;;;;;24.15;36.94;99295.06;5110179;28;20028;-80
2022/10/02 09:14:57;;;;;;;6.53;1.70;;;;;;;24.20;36.26;99255.38;5090021;28;20031;-78
2022/10/02 09:17:44;;;;;;;7.82;2.15;;;;;;;24.26;35.86;99266.97;5091800;28;20558;-79
2022/10/02 09:20:09;;;;;;;7.07;1.58;;;;;;;24.28;35.29;99272.94;5092130;28;20024;-79
2022/10/02 09:23:07;;;;;;;4.97;1.55;;;;;;;24.36;35.04;99258.88;5091266;28;20476;-78
2022/10/02 09:25:56;;;;;;;3.67;1.58;;;;;;;24.53;35.39;99243.19;5089627;28;20038;-79
2022/10/02 09:28:55;;;;;;;2.15;1.60;;;;;;;24.70;35.48;99267.94;5091074;28;20056;-79
2022/10/02 09:31:29;;;;;;;5.50;1.60;;;;;;;24.85;35.12;99256.25;5089937;28;20169;-78
2022/10/02 09:34:32;;;;;;;6.20;1.77;;;;;;;24.91;33.89;99241.63;5096994;28;20024;-78
2022/10/02 09:37:09;;;;;;;9.30;2.42;;;;;;;24.45;33.78;99181.66;5110708;28;20080;-78
2022/10/02 09:40:10;;;;;;;11.52;1.80;;;;;;;24.98;33.58;99279.16;5102334;28;20024;-78
2022/10/02 09:43:02;;;;;;;6.43;1.42;;;;;;;25.03;32.54;99293.44;5084384;28;20070;-79
2022/10/02 09:45:52;;;;;;;5.65;1.30;;;;;;;25.07;31.91;99293.69;5095549;28;20024;-79
2022/10/02 09:48:45;;;;;;;5.35;1.50;;;;;;;25.11;32.25;99281.25;5095052;28;20413;-79
2022/10/02 09:51:59;;;;;;;2.03;1.13;;;;;;;25.38;32.47;99270.00;5094603;28;20039;-78
2022/10/02 09:54:30;;;;;;;2.97;1.40;;;;;;;25.43;32.02;99282.69;5088129;28;20489;-79
2022/10/02 09:57:15;;;;;;;;;;;;;;;25.29;32.15;99277.09;5094567;28;20039;-78
2022/10/02 09:59:53;;;;;;;6.68;1.55;;;;;;;25.56;31.34;99300.97;5092891;28;20003;-78
2022/10/02 10:02:54;;;;;;;10.10;1.50;;;;;;;25.57;31.16;99283.66;5094331;28;20047;-78
2022/10/02 10:05:52;;;;;;;5.30;1.40;;;;;;;25.75;30.67;99258.66;5093938;28;20081;-78
2022/10/02 10:08:53;;;;;;;10.45;1.50;;;;;;;25.29;29.81;99215.75;5091851;28;20466;-79
2022/10/02 10:11:19;;;;;;;;;;;;;;;25.69;30.09;99272.50;5094544;28;20098;-79
2022/10/02 10:14:12;;;;;;;2.08;0.90;;;;;;;26.03;29.85;99269.78;5093901;28;19916;-78
2022/10/02 10:17:42;;;;;;;3.58;1.00;;;;;;;26.01;29.21;99245.72;5092808;28;20059;-79
2022/10/02 10:20:26;;;;;;;1.83;1.15;;;;;;;26.25;28.07;99261.97;5080191;28;20043;-79
2022/10/02 10:23:01;;;;;;;4.72;1.30;;;;;;;26.51;28.46;99265.22;5093660;28;20027;-79
2022/10/02 10:25:50;;;;;;;5.80;1.20;;;;;;;26.48;27.58;99219.75;5092271;28;20039;-78
2022/10/02 10:28:18;;;;;;;3.40;1.00;;;;;;;26.80;26.85;99251.59;5093537;28;20024;-79
2022/10/02 10:31:05;;;;;;;1.55;1.00;;;;;;;26.80;26.41;99270.56;5093855;28;20024;-79
2022/10/02 10:34:09;;;;;;;2.88;0.85;;;;;;;26.89;27.21;99269.63;5093631;28;20073;-79
2022/10/02 10:40:34;;;;;;;4.00;1.08;;;;;;;26.74;27.29;99209.41;5093734;28;20038;-78
2022/10/02 10:43:40;;;;;;;4.80;1.15;;;;;;;27.17;27.50;99267.88;5076694;28;20406;-79
2022/10/02 10:46:27;;;;;;;2.97;1.00;;;;;;;27.20;27.07;99256.47;5093777;28;20031;-79
2022/10/02 10:49:04;;;;;;;7.97;1.55;;;;;;;27.13;27.23;99272.28;5093320;28;20093;-78
2022/10/02 10:51:33;;;;;;;3.65;1.00;;;;;;;26.74;27.27;99263.56;5091793;28;20032;-78
2022/10/02 10:54:23;;;;;;;5.32;1.63;;;;;;;26.99;27.02;99265.19;5091523;28;20024;-78
2022/10/02 10:56:55;;;;;;;3.60;1.20;;;;;;;27.17;26.39;99297.69;5093304;28;20436;-79
2022/10/02 10:59:28;;;;;;;2.88;0.82;;;;;;;27.23;26.03;99309.28;5093093;28;20034;-78
2022/10/02 11:01:56;;;;;;;4.00;0.80;;;;;;;27.38;25.48;99300.91;5092016;28;20048;-78
2022/10/02 11:04:56;;;;;;;4.40;0.90;;;;;;;27.30;25.03;99293.44;5091577;28;20089;-78
2022/10/02 11:07:44;;;;;;;3.40;0.90;;;;;;;26.99;24.83;99225.34;5092755;28;20054;-78
2022/10/02 11:10:22;;;;;;;5.82;0.75;;;;;;;27.47;24.58;99282.06;5092700;28;20028;-78
2022/10/02 11:12:50;;;;;;;3.05;0.82;;;;;;;27.35;25.03;99289.84;5091458;28;20024;-78
2022/10/02 11:15:41;;;;;;;3.17;0.95;;;;;;;27.53;24.63;99325.13;5092670;28;20031;-78
2022/10/02 11:18:20;;;;;;;2.95;0.90;;;;;;;27.33;24.76;99254.91;5091014;28;20119;-78
2022/10/02 11:21:17;;;;;;;7.75;1.30;;;;;;;27.13;24.65;99209.16;5092611;28;20032;-78
2022/10/02 11:24:01;;;;;;;5.70;1.20;;;;;;;27.64;24.70;99295.97;5092639;28;20031;-78
2022/10/02 11:26:48;;;;;;;8.95;1.73;;;;;;;27.59;25.23;99287.88;5092513;28;20062;-78
2022/10/02 11:29:33;;;;;;;2.00;1.05;;;;;;;27.64;25.03;99311.44;5092670;28;20103;-79
2022/10/02 11:31:58;;;;;;;2.78;1.00;;;;;;;27.44;24.55;99309.78;5092714;28;20027;-78
2022/10/02 11:34:36;;;;;;;5.50;1.10;;;;;;;27.35;24.32;99276.28;5091452;28;20031;-78
2022/10/02 11:37:25;;;;;;;3.13;0.93;;;;;;;27.40;24.46;99300.63;5092895;28;20633;-79
2022/10/02 11:40:16;;;;;;;4.15;1.85;;;;;;;27.28;24.54;99292.94;5092535;28;20106;-79
2022/10/02 11:42:48;;;;;;;4.00;1.33;;;;;;;27.25;25.12;99309.78;5080448;28;20043;-78
2022/10/02 11:45:13;;;;;;;;;;;;;;;26.80;25.42;99284.09;5092734;28;20035;-78
2022/10/02 11:48:08;;;;;;;1.83;0.95;;;;;;;26.79;25.96;99285.19;5092485;28;19907;-78
2022/10/02 11:50:51;;;;;;;6.05;1.10;;;;;;;26.76;26.35;99267.63;5092296;28;20035;-78
2022/10/02 11:53:35;;;;;;;2.97;0.98;;;;;;;26.67;26.61;99265.81;5092154;28;20505;-79
2022/10/02 11:56:30;;;;;;;2.78;1.20;;;;;;;26.60;26.45;99263.47;5089926;28;20081;-78
2022/10/02 11:59:43;;;;;;;2.88;1.20;;;;;;;26.40;26.13;99280.78;5091973;28;20066;-78
2022/10/02 12:02:25;;;;;;;3.17;1.15;;;;;;;26.34;26.53;99298.16;5087211;28;20048;-78
2022/10/02 12:05:12;;;;;;;1.85;0.80;;;;;;;26.32;27.08;99304.94;5092253;28;20030;-78
2022/10/02 12:08:00;;;;;;;3.10;1.10;;;;;;;26.30;26.66;99299.78;5092051;28;20390;-78
2022/10/02 12:10:47;;;;;;;2.17;0.60;;;;;;;26.24;26.92;99322.59;5091802;28;20028;-78
2022/10/02 12:13:15;;;;;;;5.57;1.13;;;;;;;26.21;26.60;99325.88;5090483;28;20056;-78
2022/10/02 12:16:09;;;;;;;0.65;0.40;;;;;;;26.23;26.18;99365.09;5091712;28;20416;-79
2022/10/02 12:18:50;;;;;;;2.50;0.60;;;;;;;25.93;23.20;99330.97;5091751;28;20024;-78
2022/10/02 12:28:03;;;;;;;1.63;0.40;;;;;;;25.88;24.10;99338.31;5091991;28;20557;-78
2022/10/02 12:30:44;;;;;;;1.85;0.47;;;;;;;25.97;23.76;99342.03;5090275;28;20551;-78
2022/10/02 12:33:43;;;;;;;1.63;0.40;;;;;;;25.79;23.41;99316.50;5091501;28;20546;-78
2022/10/02 12:36:57;;;;;;;1.05;0.40;;;;;;;26.01;23.61;99347.69;5092889;28;20378;-78
2022/10/02 12:39:34;;;;;;;2.60;0.40;;;;;;;25.98;23.72;99343.66;5095542;28;20028;-79
2022/10/02 12:42:10;;;;;;;1.58;0.40;;;;;;;25.93;23.83;99330.16;5093823;28;20093;-78
2022/10/02 12:45:05;;;;;;;1.73;0.57;;;;;;;25.90;23.61;99325.31;5091990;28;20107;-78
2022/10/02 12:47:31;;;;;;;1.73;0.55;;;;;;;25.90;24.14;99336.94;5092836;28;20024;-78